Historique des mesures à Cassis (13260), France
Quotidien Résumé Fevrier 12, 2018 Unités:  US    Métrique   Métrique/US
« Précédent (Jour)
Suivant (Jour) »
Quotidien Hebdomadaire Mensuel Annuel Période au choix
  Maximum: Minimum: Moyenne:
Température: 32 °F 40.1 °F 45.3 °F
Point de rosée: 32 °F 23 °F 28.4 °F
Humidité: Humidity % 40 % 49 %
Vitesse du vent: WindSpeedKMH mph 5.8 mph 17 mph
Rafales: WindSpeedGustKMH mph - -
Vent:- - SW
Pression: 0 in 29.7 in -
Précipitations: 0 in    
Historical Graphs
 
 
Mesures pour : Fevrier 12, 2018
Heure Temperature Point de rosée Pression Vent Vitesse du vent Rafales Humidité Pluie (par heure) Conditions
32 °F 32 °F 0 in Calm     Humidity % 0 in SoftwareType W/m2
00:12 50.2 °F 34.5 °F 29.7 in WNW 14.8 mph 17.7 mph 55 % 0 in open2300-1.11 W/m2
01:12 49.5 °F 34.3 °F 29.7 in NW 24.8 mph 40.2 mph 56 % 0 in open2300-1.11 W/m2
02:12 48.6 °F 34 °F 29.7 in NW 15.4 mph 33.5 mph 57 % 0 in open2300-1.11 W/m2
03:12 48 °F 33.4 °F 29.8 in NNW 17.7 mph 19.8 mph 57 % 0 in open2300-1.11 W/m2
04:12 48.4 °F 32.4 °F 29.7 in NW 21.6 mph 21.6 mph 54 % 0 in open2300-1.11 W/m2
05:12 48 °F 32.2 °F 29.8 in North 25.3 mph 25.3 mph 54 % 0 in open2300-1.11 W/m2
06:12 46 °F 32.9 °F 29.8 in WNW 9.3 mph 16.9 mph 60 % 0 in open2300-1.11 W/m2
07:12 45.5 °F 31.1 °F 29.8 in WNW 22.7 mph 22.7 mph 57 % 0 in open2300-1.11 W/m2
08:12 43.5 °F 30.6 °F 29.8 in WNW 15.8 mph 19.5 mph 60 % 0 in open2300-1.11 W/m2
09:12 44.4 °F 30.6 °F 29.8 in WNW 16.6 mph 24.1 mph 58 % 0 in open2300-1.11 W/m2
10:12 45.7 °F 29.8 °F 29.8 in North 23.8 mph 48.3 mph 54 % 0 in open2300-1.11 W/m2
11:12 47.5 °F 27.7 °F 29.8 in North 15.8 mph 30.6 mph 46 % 0 in open2300-1.11 W/m2
12:12 47.7 °F 27.7 °F 29.8 in North 23.0 mph 23.0 mph 46 % 0 in open2300-1.11 W/m2
13:12 47.5 °F 27 °F 29.8 in NNW 14.8 mph 24.1 mph 45 % 0 in open2300-1.11 W/m2
14:12 47.8 °F 25.7 °F 29.8 in NW 17.7 mph 27.7 mph 42 % 0 in open2300-1.11 W/m2
15:12 47.8 °F 24.6 °F 29.8 in NNW 26.5 mph 28.8 mph 40 % 0 in open2300-1.11 W/m2
16:12 47.1 °F 24.4 °F 29.8 in NW 12.6 mph 17.7 mph 41 % 0 in open2300-1.11 W/m2
17:12 46 °F 24.1 °F 29.8 in NNE 8.2 mph 29.9 mph 42 % 0 in open2300-1.11 W/m2
18:12 44.2 °F 23 °F 29.8 in WNW 30.6 mph 37.8 mph 43 % 0 in open2300-1.11 W/m2
19:12 43 °F 23.5 °F 29.8 in NNW 17.7 mph 39.6 mph 46 % 0 in open2300-1.11 W/m2
20:12 41.9 °F 23.5 °F 29.8 in NW 23.8 mph 23.8 mph 48 % 0 in open2300-1.11 W/m2
21:12 41.4 °F 24.1 °F 29.8 in NNE 10.1 mph 24.1 mph 50 % 0 in open2300-1.11 W/m2
22:12 40.6 °F 24.3 °F 29.8 in North 5.8 mph 14.8 mph 52 % 0 in open2300-1.11 W/m2
23:12 40.1 °F 24.3 °F 29.8 in NW 11.1 mph 16.6 mph 53 % 0 in open2300-1.11 W/m2
Observations météo à CASSIS
WU-History script by Weather Underground - 1 mb